Ocotillo, California
Current Conditions -  °F | °C
As of 3:56 PM on Thursday 27 Nov 2014 (Local Time) from KNJK Reporting Station
Clear Clear  
Wind Chill: 82°   Ceiling: Unl
Heat Index: 82°   Visibility: 10mi
Dew Point: 26°   Wind: 0mph
Humidity: 13%   Direction: NA
Pressure: 30.03"   Gusts: NA
Location:  32.74°N, 115.99°W
Report Text: KNJK 272356Z AUTO 00000KT 10SM CLR 28/M03 A3003 RMK AO2 SLP185 T02781033 10283 20217 56013
Loading
Personal Weather Stations






























Interactive Weather Map New forecast layout! Learn more

10-Day Weather Forecast

Advertisements
Track Severe Weather on mobile